Matane, Canada
Current Conditions -  °F | °C
As of 5:00 AM on Thursday 23 Oct 2014 (Local Time) from CYYY Reporting Station
Clear Clear  
Wind Chill: 26°   Ceiling: Unl
Heat Index: 34°   Visibility: 30mi
Dew Point: 32°   Wind: 10mph
Humidity: 93%   Direction: 60°ENE
Pressure: 30.35"   Gusts: NA
Location:  48.85°N, 67.53°W
Report Text: CYYY 230900Z 06009KT 30SM SKC 01/M00 A3035 RMK SLP279
Loading
Personal Weather Stations






























Interactive Weather Map
Tropical Storm Tracking
New forecast layout! Learn more

10-Day Weather Forecast

Advertisements
Track Severe Weather on mobile